Latest Weather Observations for Cunderdin Airport

IDW60801

Issued at 10:02 pm WST Saturday 28 March 2015 (issued every 30 minutes, with the page automatically refreshed every 10 minutes)

About weather observations | Map of weather stations | Latest weather observations for WA | Other Formats
Station Details ID: 010286 Name: CUNDERDIN AIRFIELD Lat: -31.62 Lon: 117.22 Height: 216.7 m
Data from the previous 72 hours. | See also: Recent months at Cunderdin Airport
Date/Time
WST
Temp
°C
App
Temp
°C
Dew
Point
Rel
Hum
%
Delta-T
°C
Wind Press
QNH
hPa
Press
MSL
hPa
Rain
since 9 am
mm
Dir
 
Spd
km/h
Gust
km/h
Spd
kts
Gust
kts
28/10:00pm 16.6 15.9 11.3 71 2.9 ENE 6 7 3 4 1020.5 1019.5 0.0
28/09:30pm 17.5 16.3 11.5 68 3.3 E 9 9 5 5 1020.5 1019.5 0.0
28/09:00pm 19.4 18.0 10.9 58 4.7 E 9 9 5 5 1020.5 1019.5 0.0
28/08:30pm 21.0 19.4 10.2 50 5.9 SE 9 13 5 7 1020.4 1019.4 0.0
28/08:00pm 21.1 19.1 10.3 50 5.9 ESE 11 13 6 7 1020.1 1019.1 0.0
28/07:30pm 22.3 20.7 10.1 46 6.7 SE 9 11 5 6 1019.8 1018.8 0.0
28/07:00pm 22.6 21.3 10.1 45 6.9 SE 7 9 4 5 1019.3 1018.3 0.0
28/06:30pm 23.7 22.4 10.0 42 7.6 SE 7 11 4 6 1018.9 1018.0 0.0
28/06:00pm 25.0 23.2 9.3 37 8.6 SE 9 13 5 7 1018.5 1017.6 0.0
28/05:30pm 26.2 24.7 9.1 34 9.4 SE 7 13 4 7 1018.3 1017.4 0.0
28/05:00pm 26.7 24.5 9.5 34 9.6 E 11 17 6 9 1018.2 1017.3 0.0
28/04:30pm 27.2 25.3 9.1 32 10.0 SSE 9 17 5 9 1018.1 1017.2 0.0
28/04:00pm 27.6 25.5 9.9 33 9.9 S 11 15 6 8 1018.3 1017.4 0.0
28/03:30pm 27.0 24.5 9.8 34 9.6 SE 13 20 7 11 1018.4 1017.5 0.0
28/03:00pm 27.5 25.2 8.9 31 10.3 S 11 19 6 10 1018.4 1017.5 0.0
28/02:30pm 26.9 24.8 9.7 34 9.6 ESE 11 20 6 11 1018.7 1017.8 0.0
28/02:00pm 26.8 24.4 10.1 35 9.4 ESE 13 20 7 11 1018.8 1017.9 0.0
28/01:30pm 26.9 25.4 10.6 36 9.3 ESE 9 19 5 10 1019.1 1018.2 0.0
28/01:00pm 26.6 24.2 9.9 35 9.3 ESE 13 20 7 11 1019.6 1018.6 0.0
28/12:30pm 25.8 23.3 11.2 40 8.3 SE 15 26 8 14 1020.0 1019.0 0.0
28/12:00pm 25.1 22.7 11.3 42 7.8 SE 15 22 8 12 1020.5 1019.5 0.0
28/11:30am 25.1 23.2 13.0 47 7.1 SE 15 20 8 11 1020.9 1019.9 0.0
28/11:00am 23.9 22.9 14.6 56 5.6 ESE 13 20 7 11 1021.2 1020.2 0.0
28/10:30am 22.7 21.9 15.0 61 4.6 SSE 13 19 7 10 1021.4 1020.4 0.0
28/10:00am 22.1 21.3 15.2 65 4.1 SSE 13 20 7 11 1021.5 1020.5 0.0
28/09:30am 21.3 19.8 15.2 68 3.6 SE 17 20 9 11 1021.5 1020.5 0.0
28/09:00am 20.2 19.9 15.4 74 2.9 SE 11 17 6 9 1021.5 1020.5 0.0
28/08:30am 18.4 18.3 14.9 80 2.1 SSE 9 15 5 8 1021.4 1020.4 0.0
28/08:00am 16.7 16.4 14.3 86 1.4 SSE 9 11 5 6 1021.2 1020.2 0.0
28/07:30am 15.2 16.2 14.4 95 0.5 NNE 2 6 1 3 1020.9 1019.9 0.0
28/07:00am 13.6 13.8 13.1 97 0.3 N 4 9 2 5 1020.7 1019.7 0.0
28/06:30am 12.6 12.9 12.1 97 0.3 W 2 6 1 3 1020.4 1019.4 0.0
28/06:00am 12.7 13.4 12.2 97 0.3 CALM 0 0 0 0 1020.2 1019.2 0.0
28/05:30am 12.5 12.3 11.9 96 0.3 NNE 4 6 2 3 1020.0 1019.0 0.0
28/05:00am 12.3 12.0 11.5 95 0.4 NNW 4 7 2 4 1019.7 1018.7 0.0
28/04:30am 13.0 12.9 12.2 95 0.4 N 4 6 2 3 1019.5 1018.5 0.0
28/04:00am 13.6 13.2 12.5 93 0.6 W 6 7 3 4 1019.1 1018.2 0.0
28/03:30am 13.8 13.4 12.9 94 0.5 WSW 7 9 4 5 1019.0 1018.1 0.0
28/03:00am 13.7 13.2 12.8 94 0.5 W 7 9 4 5 1018.9 1018.0 0.0
28/02:30am 14.1 14.7 13.0 93 0.6 W 2 6 1 3 1019.0 1018.1 0.0
28/02:00am 14.9 14.6 13.3 90 0.9 WSW 7 11 4 6 1019.3 1018.3 0.0
28/01:30am 15.5 15.4 14.0 91 0.9 SW 7 7 4 4 1019.4 1018.4 0.0
28/01:00am 15.7 15.8 13.9 89 1.0 SSW 6 9 3 5 1019.5 1018.5 0.0
28/12:30am 15.5 15.5 13.7 89 1.0 SSW 6 9 3 5 1019.7 1018.7 0.0
28/12:00am 16.1 16.7 14.3 89 1.0 S 4 7 2 4 1019.7 1018.7 0.0
 
Date/Time
WST
Temp
°C
App
Temp
°C
Dew
Point
Rel
Hum
%
Delta-T
°C
Wind Press
QNH
hPa
Press
MSL
hPa
Rain
since 9 am
mm
Dir
 
Spd
km/h
Gust
km/h
Spd
kts
Gust
kts
27/11:30pm 16.5 16.7 14.7 89 1.0 SSE 7 11 4 6 1019.7 1018.7 0.0
27/11:00pm 16.8 16.7 15.0 89 1.0 SSE 9 13 5 7 1019.8 1018.8 0.0
27/10:30pm 16.8 16.7 15.0 89 1.1 SSE 9 13 5 7 1020.1 1019.1 0.0
27/10:00pm 16.8 18.4 14.8 88 1.2 CALM 0 0 0 0 1020.3 1019.3 0.0
27/09:30pm 17.5 17.0 14.8 84 1.6 SE 11 13 6 7 1020.4 1019.4 0.0
27/09:00pm 18.1 17.9 14.8 81 1.9 ESE 9 13 5 7 1020.3 1019.3 0.0
27/08:30pm 18.4 17.5 14.9 80 2.1 SE 13 17 7 9 1020.0 1019.0 0.0
27/08:00pm 19.0 17.9 15.3 79 2.2 SE 15 20 8 11 1019.9 1018.9 0.0
27/07:30pm 19.5 18.3 15.0 75 2.7 SE 15 24 8 13 1019.5 1018.5 0.0
27/07:00pm 20.3 18.0 14.2 68 3.6 SE 19 26 10 14 1018.9 1018.0 0.0
27/06:30pm 21.1 18.9 15.0 68 3.6 SSE 20 30 11 16 1018.5 1017.6 0.0
27/06:00pm 22.6 19.7 15.0 62 4.5 SSE 24 28 13 15 1018.1 1017.2 0.0
27/05:30pm 23.7 20.6 14.4 56 5.5 S 24 28 13 15 1017.7 1016.8 0.0
27/05:00pm 24.4 20.9 14.5 54 5.9 S 26 35 14 19 1017.5 1016.5 0.0
27/04:30pm 24.6 21.1 14.4 53 6.1 S 26 33 14 18 1017.3 1016.3 0.0
27/04:00pm 26.1 24.8 13.6 46 7.4 SW 13 20 7 11 1017.2 1016.2 0.0
27/03:30pm 26.3 25.8 13.8 46 7.5 S 9 19 5 10 1017.3 1016.3 0.0
27/03:00pm 25.8 25.1 13.3 46 7.4 SSE 9 17 5 9 1017.4 1016.4 0.0
27/02:30pm 26.4 26.2 13.5 45 7.7 SE 7 11 4 6 1017.5 1016.5 0.0
27/02:00pm 26.4 26.2 13.5 45 7.7 ENE 7 15 4 8 1017.9 1017.0 0.0
27/01:30pm 26.5 25.9 13.6 45 7.7 NNE 9 13 5 7 1018.4 1017.5 0.0
27/01:00pm 24.6 24.7 14.4 53 6.1 NE 7 17 4 9 1018.8 1017.9 0.0
27/12:30pm 25.6 25.8 14.7 51 6.6 ENE 7 15 4 8 1019.3 1018.3 0.0
27/12:00pm 24.3 22.8 13.2 50 6.5 NNE 13 28 7 15 1019.8 1018.8 0.0
27/11:30am 24.1 22.3 14.5 55 5.7 NE 17 22 9 12 1020.2 1019.2 0.0
27/11:00am 24.0 22.3 15.8 60 5.0 NE 19 26 10 14 1020.5 1019.5 0.0
27/10:30am 22.9 21.0 15.7 64 4.4 NE 20 28 11 15 1020.9 1019.9 0.0
27/10:00am 22.1 20.5 15.9 68 3.8 NE 19 28 10 15 1021.2 1020.2 0.0
27/09:30am 20.8 18.8 15.6 72 3.1 ENE 20 28 11 15 1021.5 1020.5 0.0
27/09:00am 19.2 18.0 16.1 82 1.9 ENE 17 22 9 12 1021.6 1020.7 7.4
27/08:30am 17.6 16.3 14.9 84 1.6 E 15 20 8 11 1021.6 1020.7 7.4
27/08:00am 16.7 14.8 14.3 86 1.4 E 17 22 9 12 1021.6 1020.7 7.4
27/07:30am 16.1 14.3 14.5 90 0.9 E 17 22 9 12 1021.8 1020.9 7.4
27/07:00am 16.0 14.5 14.2 89 1.0 E 15 20 8 11 1021.7 1020.8 7.4
27/06:30am 15.8 13.4 13.8 88 1.1 E 19 24 10 13 1021.5 1020.5 7.4
27/06:00am 16.0 15.1 13.7 86 1.3 ESE 11 17 6 9 1021.7 1020.8 7.2
27/05:30am 15.8 13.4 13.8 88 1.1 ESE 19 28 10 15 1021.4 1020.4 7.2
27/05:00am 15.9 13.5 13.9 88 1.1 SE 19 26 10 14 1021.9 1021.0 6.0
27/04:30am 15.8 13.9 14.2 90 0.9 SSW 17 20 9 11 1022.7 1021.8 4.8
27/04:00am 15.8 13.1 14.5 92 0.7 SW 22 28 12 15 1022.3 1021.4 4.0
27/03:30am 16.3 13.6 14.5 89 1.0 SSW 22 30 12 16 1021.8 1020.9 2.8
27/03:00am 16.5 14.4 14.7 89 1.0 SW 19 24 10 13 1021.9 1021.0 2.2
27/02:30am 16.6 14.9 14.8 89 1.0 SW 17 20 9 11 1021.7 1020.8 2.2
27/02:00am 16.8 16.1 15.5 92 0.8 SSW 13 19 7 10 1021.9 1021.0 1.8
27/01:30am 17.4 16.1 15.7 90 1.0 WSW 17 20 9 11 1022.3 1021.4 1.4
27/01:00am 18.1 17.5 14.6 80 2.0 NNW 11 17 6 9 1022.7 1021.8 0.4
27/12:30am 19.4 18.4 13.3 68 3.5 SE 11 17 6 9 1022.3 1021.4 0.0
27/12:00am 19.7 19.1 13.4 67 3.6 ESE 9 11 5 6 1022.6 1021.7 0.0
 
Date/Time
WST
Temp
°C
App
Temp
°C
Dew
Point
Rel
Hum
%
Delta-T
°C
Wind Press
QNH
hPa
Press
MSL
hPa
Rain
since 9 am
mm
Dir
 
Spd
km/h
Gust
km/h
Spd
kts
Gust
kts
26/11:30pm 20.2 19.3 12.7 62 4.3 ENE 9 13 5 7 1022.5 1021.6 0.0
26/11:00pm 21.1 19.2 11.7 55 5.3 E 13 15 7 8 1022.4 1021.5 0.0
26/10:30pm 20.6 18.0 12.1 58 4.8 NE 17 20 9 11 1022.7 1021.8 0.0
26/10:00pm 21.1 18.7 10.0 49 6.0 NNE 13 15 7 8 1022.6 1021.7 0.0
26/09:30pm 23.5 21.2 5.9 32 9.0 ESE 7 13 4 7 1022.0 1021.1 0.0
26/09:00pm 23.7 19.9 6.0 32 9.1 SE 15 20 8 11 1022.1 1021.2 0.0
26/08:30pm 22.6 19.9 9.0 42 7.3 SSE 13 15 7 8 1022.1 1021.2 0.0
26/08:00pm 23.5 21.3 8.0 37 8.2 SE 9 11 5 6 1022.1 1021.2 0.0
26/07:30pm 24.4 21.6 5.2 29 9.8 ESE 9 11 5 6 1021.9 1021.0 0.0
26/07:00pm 25.0 21.7 4.7 27 10.3 ESE 11 13 6 7 1021.6 1020.7 0.0
26/06:30pm 25.5 21.8 4.6 26 10.6 E 13 15 7 8 1021.4 1020.4 0.0
26/06:00pm 26.1 22.0 4.6 25 10.9 ENE 15 20 8 11 1021.2 1020.2 0.0
26/05:30pm 26.6 22.2 5.0 25 11.1 ENE 17 22 9 12 1021.2 1020.2 0.0
26/05:00pm 27.0 22.0 4.7 24 11.4 E 20 28 11 15 1021.1 1020.1 0.0
26/04:30pm 27.7 22.3 4.7 23 11.9 ENE 22 32 12 17 1020.9 1019.9 0.0
26/04:00pm 28.0 22.7 5.0 23 11.9 E 22 33 12 18 1020.9 1019.9 0.0
26/03:30pm 28.2 23.2 4.5 22 12.2 ENE 20 30 11 16 1021.1 1020.1 0.0
26/03:00pm 28.2 23.8 4.5 22 12.2 ENE 17 26 9 14 1021.2 1020.2 0.0
26/02:30pm 28.3 23.3 4.6 22 12.2 ENE 20 32 11 17 1021.4 1020.4 0.0
26/02:00pm 28.7 23.8 4.9 22 12.3 ESE 20 35 11 19 1021.5 1020.5 0.0
26/01:30pm 28.7 24.5 5.5 23 12.2 E 17 30 9 16 1021.9 1021.0 0.0
26/01:00pm 28.3 23.7 6.4 25 11.6 ENE 20 33 11 18 1022.7 1021.8 0.0
26/12:30pm 27.4 22.2 7.3 28 10.8 ENE 24 35 13 19 1023.3 1022.4 0.0
26/12:00pm 26.9 22.0 8.4 31 10.1 ENE 24 35 13 19 1023.9 1023.0 0.0
26/11:30am 26.3 21.0 8.3 32 9.8 ENE 26 39 14 21 1024.5 1023.5 0.0
26/11:00am 25.6 19.8 8.1 33 9.4 ENE 28 35 15 19 1024.9 1023.9 0.0
26/10:30am 24.6 19.1 9.0 37 8.5 ENE 28 37 15 20 1025.3 1024.3 0.0
26/10:00am 23.7 18.7 9.7 41 7.7 ENE 26 33 14 18 1025.6 1024.6 0.0
26/09:30am 21.8 15.8 10.0 47 6.5 ENE 32 43 17 23 1025.9 1025.0 0.0
26/09:00am 20.7 15.3 10.8 53 5.4 ENE 30 37 16 20 1025.9 1025.0 0.0
26/08:30am 19.6 14.6 11.1 58 4.7 ENE 28 39 15 21 1026.1 1025.2 0.0
26/08:00am 17.4 13.6 11.2 67 3.4 E 22 30 12 16 1026.1 1025.2 0.0
26/07:30am 16.1 12.7 11.1 72 2.7 E 20 30 11 16 1026.0 1025.1 0.0
26/07:00am 14.5 11.5 10.5 77 2.1 ESE 17 24 9 13 1025.7 1024.8 0.0
26/06:30am 13.4 10.7 10.2 81 1.7 ESE 15 19 8 10 1025.6 1024.6 0.0
26/06:00am 13.3 10.5 10.1 81 1.7 ESE 15 19 8 10 1025.3 1024.3 0.0
26/05:30am 13.6 10.5 10.2 80 1.8 E 17 20 9 11 1025.2 1024.2 0.0
26/05:00am 13.8 10.7 10.4 80 1.8 ESE 17 22 9 12 1025.1 1024.1 0.0
26/04:30am 14.0 10.9 10.4 79 1.9 ESE 17 20 9 11 1025.0 1024.0 0.0
26/04:00am 14.2 11.9 10.4 78 2.0 ESE 13 17 7 9 1025.0 1024.0 0.0
26/03:30am 14.8 12.2 10.6 76 2.2 ESE 15 20 8 11 1024.9 1023.9 0.0
26/03:00am 15.2 12.6 10.8 75 2.3 ESE 15 20 8 11 1024.8 1023.8 0.0
26/02:30am 15.3 12.8 10.9 75 2.4 ESE 15 20 8 11 1024.9 1023.9 0.0
26/02:00am 15.6 12.7 11.0 74 2.5 ESE 17 22 9 12 1024.9 1023.9 0.0
26/01:30am 16.0 13.2 11.2 73 2.6 ESE 17 26 9 14 1025.0 1024.0 0.0
26/01:00am 16.5 13.1 11.2 71 2.9 ESE 20 28 11 15 1025.0 1024.0 0.0
26/12:30am 16.9 13.1 11.2 69 3.1 ESE 22 33 12 18 1025.0 1024.0 0.0
26/12:00am 17.3 13.2 11.3 68 3.3 ESE 24 35 13 19 1025.0 1024.0 0.0
 
Date/Time
WST
Temp
°C
App
Temp
°C
Dew
Point
Rel
Hum
%
Delta-T
°C
Wind Press
QNH
hPa
Press
MSL
hPa
Rain
since 9 am
mm
Dir
 
Spd
km/h
Gust
km/h
Spd
kts
Gust
kts
25/11:30pm 17.7 13.6 11.5 67 3.4 ESE 24 33 13 18 1025.0 1024.0 0.0
25/11:00pm 18.0 13.9 11.6 66 3.5 ESE 24 35 13 19 1024.9 1023.9 0.0
25/10:30pm 18.6 14.1 11.4 63 4.0 ESE 26 41 14 22 1024.6 1023.6 0.0

Other Formats:

Comma delimited format used in spreadsheet applications
http://www.bom.gov.au/fwo/IDW60801/IDW60801.95625.axf

JavaScript Object Notation format (JSON) in row-major order
http://www.bom.gov.au/fwo/IDW60801/IDW60801.95625.json